DATCR EVRA-LEZL
Flight info
| Callsign | DATCR |
|---|---|
| Flight time | N/A |
| Altitude | 38000 |
| Route | ASKOR DCT RANOK L733 BEZMI P31 GOVEN DCT PEROX Z715 ANELA N869 TEDGO/N0453F390 N869 OLBEN DCT ONNOF DCT BELUS/N0454F400 DCT LSE/N0453F390 UY305 ESIDA DCT GAI DCT PERDU DCT KONKE Z245 CJN N10 HIJ |
| Aircraft | CL60/M-SBDE1E2E3FGHIJ1J4J5J7M3RWXYZ/LB1V1D1 |
Departure
| Time | N/A |
|---|---|
| Airport | Riga International Airport (EVRA) |
Arrival
| Time | 2026-04-26 15:21 |
|---|---|
| Airport | Seville Airport (LEZL) |
| Time | Latitude | Longitude | Altitude | Speed | Heading |
|---|---|---|---|---|---|
| 2026-04-26 13:35 | 45.71347 | 5.32245 | 40165 ft | 449 kts | 281° |
| 2026-04-26 13:36 | 45.71960 | 5.27855 | 40166 ft | 449 kts | 281° |
| 2026-04-26 13:36 | 45.73058 | 5.19065 | 40167 ft | 449 kts | 276° |
| 2026-04-26 13:37 | 45.72956 | 5.10168 | 40170 ft | 450 kts | 262° |
| 2026-04-26 13:37 | 45.71374 | 5.01535 | 40163 ft | 451 kts | 249° |
| 2026-04-26 13:38 | 45.68550 | 4.93573 | 40173 ft | 452 kts | 242° |
| 2026-04-26 13:38 | 45.65573 | 4.85683 | 40173 ft | 453 kts | 244° |
| 2026-04-26 13:39 | 45.62722 | 4.77644 | 40169 ft | 453 kts | 244° |
| 2026-04-26 13:39 | 45.59876 | 4.69647 | 40174 ft | 453 kts | 244° |
| 2026-04-26 13:40 | 45.57018 | 4.61634 | 40167 ft | 453 kts | 244° |
| 2026-04-26 13:40 | 45.54165 | 4.53657 | 40174 ft | 453 kts | 244° |
| 2026-04-26 13:41 | 45.51308 | 4.45690 | 40180 ft | 453 kts | 244° |
| 2026-04-26 13:41 | 45.48247 | 4.37848 | 40187 ft | 455 kts | 237° |
| 2026-04-26 13:42 | 45.44320 | 4.30846 | 40187 ft | 457 kts | 232° |
| 2026-04-26 13:42 | 45.40280 | 4.23865 | 40187 ft | 457 kts | 232° |
| 2026-04-26 13:43 | 45.36241 | 4.16892 | 40192 ft | 457 kts | 232° |
| 2026-04-26 13:43 | 45.32186 | 4.09898 | 40184 ft | 457 kts | 232° |
| 2026-04-26 13:44 | 45.28146 | 4.02943 | 40195 ft | 457 kts | 232° |
| 2026-04-26 13:44 | 45.24094 | 3.95977 | 40190 ft | 458 kts | 232° |
| 2026-04-26 13:45 | 45.20052 | 3.89042 | 40203 ft | 458 kts | 232° |
| 2026-04-26 13:45 | 45.15989 | 3.82086 | 40205 ft | 458 kts | 232° |
| 2026-04-26 13:46 | 45.11944 | 3.75175 | 40206 ft | 459 kts | 232° |
| 2026-04-26 13:46 | 45.07868 | 3.68225 | 40207 ft | 459 kts | 232° |
| 2026-04-26 13:47 | 45.03806 | 3.61318 | 40217 ft | 459 kts | 232° |
| 2026-04-26 13:47 | 44.99738 | 3.54413 | 40203 ft | 459 kts | 232° |
| 2026-04-26 13:48 | 44.95663 | 3.47514 | 40192 ft | 459 kts | 232° |
| 2026-04-26 13:48 | 44.91558 | 3.40578 | 40200 ft | 460 kts | 232° |
| 2026-04-26 13:49 | 44.87532 | 3.33793 | 40200 ft | 460 kts | 231° |
| 2026-04-26 13:49 | 44.83383 | 3.26817 | 40189 ft | 460 kts | 232° |
| 2026-04-26 13:50 | 44.79287 | 3.19944 | 40196 ft | 460 kts | 232° |
| 2026-04-26 13:50 | 44.75180 | 3.13072 | 40197 ft | 461 kts | 232° |
| 2026-04-26 13:51 | 44.71069 | 3.06207 | 40190 ft | 461 kts | 232° |
| 2026-04-26 13:51 | 44.66934 | 2.99320 | 40197 ft | 461 kts | 232° |
| 2026-04-26 13:52 | 44.62812 | 2.92471 | 40185 ft | 461 kts | 232° |
| 2026-04-26 13:52 | 44.58672 | 2.85606 | 40185 ft | 461 kts | 232° |
| 2026-04-26 13:53 | 44.54534 | 2.78762 | 40180 ft | 461 kts | 232° |
| 2026-04-26 13:53 | 44.50354 | 2.71864 | 40183 ft | 461 kts | 232° |
| 2026-04-26 13:54 | 44.46209 | 2.65041 | 40179 ft | 461 kts | 232° |
| 2026-04-26 13:54 | 44.42057 | 2.58221 | 40174 ft | 462 kts | 232° |
| 2026-04-26 13:55 | 44.36477 | 2.49082 | 40187 ft | 462 kts | 232° |
| 2026-04-26 13:56 | 44.29538 | 2.37756 | 40181 ft | 462 kts | 232° |
| 2026-04-26 13:56 | 44.25360 | 2.30958 | 40167 ft | 463 kts | 231° |
| 2026-04-26 13:57 | 44.21158 | 2.24135 | 40164 ft | 462 kts | 231° |
| 2026-04-26 13:57 | 44.16979 | 2.17368 | 40167 ft | 462 kts | 231° |
| 2026-04-26 13:58 | 44.12784 | 2.10590 | 40168 ft | 462 kts | 231° |
| 2026-04-26 13:58 | 44.08593 | 2.03833 | 40163 ft | 463 kts | 231° |
| 2026-04-26 13:59 | 44.04382 | 1.97061 | 40159 ft | 463 kts | 231° |
| 2026-04-26 13:59 | 44.00191 | 1.90335 | 40184 ft | 463 kts | 231° |
| 2026-04-26 14:00 | 43.91581 | 1.77080 | 40168 ft | 464 kts | 227° |
| 2026-04-26 14:01 | 43.87171 | 1.70922 | 40166 ft | 464 kts | 227° |
| 2026-04-26 14:01 | 43.82623 | 1.64567 | 40168 ft | 464 kts | 227° |
| 2026-04-26 14:02 | 43.78093 | 1.58243 | 40177 ft | 464 kts | 227° |
| 2026-04-26 14:02 | 43.73533 | 1.51885 | 40180 ft | 464 kts | 227° |
| 2026-04-26 14:03 | 43.69006 | 1.45582 | 40181 ft | 464 kts | 227° |
| 2026-04-26 14:03 | 43.64459 | 1.39263 | 40188 ft | 464 kts | 227° |
| 2026-04-26 14:04 | 43.59889 | 1.32922 | 40189 ft | 464 kts | 227° |
| 2026-04-26 14:04 | 43.55355 | 1.26642 | 40184 ft | 464 kts | 227° |
| 2026-04-26 14:05 | 43.50791 | 1.20334 | 40192 ft | 464 kts | 226° |
| 2026-04-26 14:05 | 43.46256 | 1.14079 | 40182 ft | 464 kts | 227° |
| 2026-04-26 14:06 | 43.41701 | 1.07811 | 40183 ft | 464 kts | 226° |
| 2026-04-26 14:06 | 43.37126 | 1.01527 | 40190 ft | 464 kts | 226° |
| 2026-04-26 14:07 | 43.32561 | 0.95270 | 40185 ft | 465 kts | 226° |
| 2026-04-26 14:07 | 43.27995 | 0.89026 | 40190 ft | 465 kts | 226° |
| 2026-04-26 14:08 | 43.23436 | 0.82805 | 40199 ft | 465 kts | 226° |
| 2026-04-26 14:08 | 43.18865 | 0.76581 | 40193 ft | 465 kts | 226° |
| 2026-04-26 14:09 | 43.14301 | 0.70381 | 40199 ft | 465 kts | 226° |
| 2026-04-26 14:09 | 43.09697 | 0.64138 | 40191 ft | 465 kts | 226° |
| 2026-04-26 14:10 | 43.05114 | 0.57939 | 40202 ft | 465 kts | 226° |
| 2026-04-26 14:10 | 43.00542 | 0.51768 | 40206 ft | 465 kts | 226° |
| 2026-04-26 14:11 | 42.93642 | 0.42480 | 40217 ft | 465 kts | 226° |
| 2026-04-26 14:11 | 42.89049 | 0.36315 | 40237 ft | 465 kts | 226° |
| 2026-04-26 14:12 | 42.84398 | 0.30086 | 40262 ft | 465 kts | 225° |
| 2026-04-26 14:12 | 42.79787 | 0.23923 | 40256 ft | 466 kts | 225° |
| 2026-04-26 14:13 | 42.72825 | 0.14694 | 40264 ft | 466 kts | 223° |
| 2026-04-26 14:14 | 42.67949 | 0.08929 | 40249 ft | 466 kts | 222° |
| 2026-04-26 14:14 | 42.63039 | 0.03169 | 40232 ft | 466 kts | 222° |
| 2026-04-26 14:15 | 42.58134 | -0.02573 | 40210 ft | 466 kts | 222° |
| 2026-04-26 14:15 | 42.53256 | -0.08274 | 40201 ft | 466 kts | 222° |
| 2026-04-26 14:16 | 42.48328 | -0.14022 | 40198 ft | 466 kts | 221° |
| 2026-04-26 14:16 | 42.43420 | -0.19736 | 40195 ft | 466 kts | 222° |
| 2026-04-26 14:17 | 42.38521 | -0.25428 | 40189 ft | 466 kts | 222° |
| 2026-04-26 14:17 | 42.33614 | -0.31118 | 40187 ft | 466 kts | 222° |
| 2026-04-26 14:18 | 42.28678 | -0.36829 | 40180 ft | 466 kts | 222° |
| 2026-04-26 14:18 | 42.23779 | -0.42485 | 40175 ft | 466 kts | 222° |
| 2026-04-26 14:19 | 42.18843 | -0.48172 | 40167 ft | 467 kts | 222° |
| 2026-04-26 14:19 | 42.13910 | -0.53844 | 40157 ft | 467 kts | 222° |
| 2026-04-26 14:20 | 42.08992 | -0.59486 | 40154 ft | 467 kts | 222° |
| 2026-04-26 14:20 | 42.04053 | -0.65140 | 40142 ft | 467 kts | 221° |
| 2026-04-26 14:21 | 41.99082 | -0.70819 | 40143 ft | 467 kts | 221° |
| 2026-04-26 14:21 | 41.94125 | -0.76469 | 40141 ft | 467 kts | 221° |
| 2026-04-26 14:22 | 41.89223 | -0.82046 | 40140 ft | 468 kts | 221° |
| 2026-04-26 14:22 | 41.84230 | -0.87713 | 40156 ft | 467 kts | 221° |
| 2026-04-26 14:23 | 41.79254 | -0.93349 | 40137 ft | 468 kts | 221° |
| 2026-04-26 14:23 | 41.74304 | -0.98943 | 40151 ft | 468 kts | 221° |
| 2026-04-26 14:24 | 41.69340 | -1.04542 | 40153 ft | 468 kts | 221° |
| 2026-04-26 14:24 | 41.64360 | -1.10146 | 40149 ft | 469 kts | 221° |
| 2026-04-26 14:25 | 41.59388 | -1.15730 | 40154 ft | 469 kts | 221° |
| 2026-04-26 14:25 | 41.54385 | -1.21337 | 40160 ft | 469 kts | 221° |
| 2026-04-26 14:26 | 41.49411 | -1.26899 | 40163 ft | 469 kts | 221° |
| 2026-04-26 14:26 | 41.44405 | -1.32486 | 40179 ft | 469 kts | 221° |
| 2026-04-26 14:27 | 41.39419 | -1.38037 | 40179 ft | 469 kts | 221° |
| 2026-04-26 14:27 | 41.34420 | -1.43591 | 40200 ft | 469 kts | 221° |
| 2026-04-26 14:28 | 41.29416 | -1.49140 | 40205 ft | 469 kts | 221° |
| 2026-04-26 14:28 | 41.24408 | -1.54681 | 40197 ft | 470 kts | 221° |
| 2026-04-26 14:29 | 41.19382 | -1.60230 | 40208 ft | 469 kts | 221° |
| 2026-04-26 14:29 | 41.14380 | -1.65740 | 40209 ft | 470 kts | 220° |
| 2026-04-26 14:30 | 41.09360 | -1.71260 | 40211 ft | 470 kts | 220° |
| 2026-04-26 14:30 | 41.04326 | -1.76782 | 40221 ft | 470 kts | 220° |
| 2026-04-26 14:31 | 40.99387 | -1.82412 | 40217 ft | 470 kts | 223° |
| 2026-04-26 14:31 | 40.94521 | -1.88163 | 40215 ft | 470 kts | 223° |
| 2026-04-26 14:32 | 40.89679 | -1.93864 | 40217 ft | 470 kts | 223° |
| 2026-04-26 14:32 | 40.84772 | -1.99624 | 40227 ft | 469 kts | 223° |
| 2026-04-26 14:33 | 40.79911 | -2.05313 | 40212 ft | 470 kts | 223° |
| 2026-04-26 14:33 | 40.74987 | -2.11061 | 40223 ft | 470 kts | 223° |
| 2026-04-26 14:34 | 40.70095 | -2.16752 | 40216 ft | 469 kts | 222° |
| 2026-04-26 14:34 | 40.65232 | -2.22390 | 40219 ft | 470 kts | 222° |
| 2026-04-26 14:35 | 40.60329 | -2.28059 | 40219 ft | 470 kts | 222° |
| 2026-04-26 14:35 | 40.55407 | -2.33739 | 40206 ft | 470 kts | 222° |
| 2026-04-26 14:36 | 40.50528 | -2.39356 | 40188 ft | 470 kts | 222° |
| 2026-04-26 14:36 | 40.45609 | -2.45008 | 40198 ft | 470 kts | 222° |
| 2026-04-26 14:37 | 40.40690 | -2.50647 | 40187 ft | 469 kts | 222° |
| 2026-04-26 14:37 | 40.35955 | -2.56481 | 40190 ft | 468 kts | 230° |
| 2026-04-26 14:38 | 40.31799 | -2.63038 | 40181 ft | 468 kts | 232° |
| 2026-04-26 14:38 | 40.27646 | -2.69613 | 40182 ft | 468 kts | 231° |
| 2026-04-26 14:39 | 40.23472 | -2.76195 | 40181 ft | 468 kts | 231° |
| 2026-04-26 14:39 | 40.19320 | -2.82719 | 40176 ft | 468 kts | 231° |
| 2026-04-26 14:40 | 40.15175 | -2.89211 | 40176 ft | 468 kts | 231° |
| 2026-04-26 14:40 | 40.11002 | -2.95727 | 40158 ft | 468 kts | 231° |
| 2026-04-26 14:41 | 40.06822 | -3.02237 | 40176 ft | 468 kts | 231° |
| 2026-04-26 14:41 | 40.02631 | -3.08745 | 40162 ft | 468 kts | 231° |
| 2026-04-26 14:42 | 39.98465 | -3.15201 | 40163 ft | 468 kts | 231° |
| 2026-04-26 14:42 | 39.94265 | -3.21693 | 40159 ft | 468 kts | 231° |
| 2026-04-26 14:43 | 39.90077 | -3.28152 | 40157 ft | 468 kts | 231° |
| 2026-04-26 14:43 | 39.85862 | -3.34636 | 40158 ft | 468 kts | 231° |
| 2026-04-26 14:44 | 39.81659 | -3.41088 | 40156 ft | 468 kts | 231° |
| 2026-04-26 14:44 | 39.77451 | -3.47444 | 40147 ft | 468 kts | 228° |
| 2026-04-26 14:45 | 39.72875 | -3.53474 | 40145 ft | 468 kts | 227° |
| 2026-04-26 14:45 | 39.68290 | -3.59481 | 40140 ft | 468 kts | 227° |
| 2026-04-26 14:46 | 39.63736 | -3.65441 | 40140 ft | 468 kts | 226° |
| 2026-04-26 14:46 | 39.60075 | -3.70226 | 40128 ft | 468 kts | 226° |
| 2026-04-26 14:47 | 39.58268 | -3.72585 | 40139 ft | 468 kts | 226° |
| 2026-04-26 14:47 | 39.53669 | -3.78586 | 40134 ft | 468 kts | 226° |
| 2026-04-26 14:48 | 39.49101 | -3.84535 | 40141 ft | 468 kts | 226° |
| 2026-04-26 14:48 | 39.44527 | -3.90483 | 40137 ft | 467 kts | 226° |
| 2026-04-26 14:49 | 39.39948 | -3.96427 | 40140 ft | 467 kts | 226° |
| 2026-04-26 14:49 | 39.35387 | -4.02335 | 40131 ft | 467 kts | 226° |
| 2026-04-26 14:50 | 39.30784 | -4.08288 | 40128 ft | 466 kts | 226° |
| 2026-04-26 14:50 | 39.26228 | -4.14167 | 40130 ft | 467 kts | 226° |
| 2026-04-26 14:51 | 39.21637 | -4.20081 | 40128 ft | 467 kts | 226° |
| 2026-04-26 14:51 | 39.17048 | -4.25981 | 40122 ft | 467 kts | 226° |
| 2026-04-26 14:52 | 39.12479 | -4.31844 | 40117 ft | 467 kts | 226° |
| 2026-04-26 14:52 | 39.10186 | -4.34781 | 39873 ft | 463 kts | 226° |
| 2026-04-26 14:52 | 39.07912 | -4.37693 | 39365 ft | 458 kts | 226° |
| 2026-04-26 14:52 | 39.05680 | -4.40546 | 38869 ft | 451 kts | 226° |
| 2026-04-26 14:53 | 39.03487 | -4.43349 | 38359 ft | 446 kts | 226° |
| 2026-04-26 14:53 | 39.01311 | -4.46127 | 37836 ft | 440 kts | 226° |
| 2026-04-26 14:53 | 38.99134 | -4.48903 | 37352 ft | 434 kts | 226° |
| 2026-04-26 14:53 | 38.97018 | -4.51600 | 36851 ft | 429 kts | 226° |
| 2026-04-26 14:54 | 38.94919 | -4.54272 | 36377 ft | 424 kts | 226° |
| 2026-04-26 14:54 | 38.92844 | -4.56912 | 35919 ft | 425 kts | 226° |
| 2026-04-26 14:54 | 38.90720 | -4.59611 | 35387 ft | 428 kts | 225° |
| 2026-04-26 14:54 | 38.88594 | -4.62310 | 34901 ft | 429 kts | 225° |
| 2026-04-26 14:55 | 38.86467 | -4.65006 | 34376 ft | 429 kts | 225° |
| 2026-04-26 14:55 | 38.84367 | -4.67667 | 33894 ft | 424 kts | 225° |
| 2026-04-26 14:55 | 38.82258 | -4.70337 | 33406 ft | 421 kts | 225° |
| 2026-04-26 14:55 | 38.80212 | -4.72924 | 32931 ft | 418 kts | 225° |
| 2026-04-26 14:56 | 38.78139 | -4.75543 | 32454 ft | 415 kts | 225° |
| 2026-04-26 14:56 | 38.76118 | -4.78095 | 31983 ft | 412 kts | 225° |
| 2026-04-26 14:56 | 38.74092 | -4.80650 | 31509 ft | 408 kts | 225° |
| 2026-04-26 14:56 | 38.72062 | -4.83209 | 31044 ft | 404 kts | 225° |
| 2026-04-26 14:57 | 38.70082 | -4.85703 | 30578 ft | 401 kts | 225° |
| 2026-04-26 14:57 | 38.68112 | -4.88181 | 30122 ft | 398 kts | 225° |
| 2026-04-26 14:57 | 38.66143 | -4.90657 | 29665 ft | 394 kts | 225° |
| 2026-04-26 14:57 | 38.64189 | -4.93112 | 29213 ft | 392 kts | 225° |
| 2026-04-26 14:58 | 38.62275 | -4.95514 | 28772 ft | 389 kts | 225° |
| 2026-04-26 14:58 | 38.60351 | -4.97928 | 28325 ft | 387 kts | 225° |
| 2026-04-26 14:58 | 38.58437 | -5.00326 | 27882 ft | 384 kts | 225° |
| 2026-04-26 14:58 | 38.56526 | -5.02719 | 27441 ft | 382 kts | 225° |
| 2026-04-26 14:59 | 38.54814 | -5.04861 | 27045 ft | 380 kts | 225° |
| 2026-04-26 14:59 | 38.52922 | -5.07227 | 26605 ft | 379 kts | 225° |
| 2026-04-26 14:59 | 38.51051 | -5.09554 | 26174 ft | 376 kts | 224° |
| 2026-04-26 14:59 | 38.50400 | -5.10337 | 26027 ft | 375 kts | 223° |
| 2026-04-26 15:00 | 38.47171 | -5.13940 | 25314 ft | 372 kts | 221° |
| 2026-04-26 15:00 | 38.45220 | -5.16081 | 24890 ft | 370 kts | 221° |
| 2026-04-26 15:00 | 38.43263 | -5.18230 | 24460 ft | 368 kts | 221° |
| 2026-04-26 15:00 | 38.41334 | -5.20345 | 24042 ft | 366 kts | 221° |
| 2026-04-26 15:01 | 38.39411 | -5.22455 | 23625 ft | 363 kts | 221° |
| 2026-04-26 15:01 | 38.37505 | -5.24545 | 23210 ft | 361 kts | 221° |
| 2026-04-26 15:01 | 38.35613 | -5.26618 | 22795 ft | 359 kts | 221° |
| 2026-04-26 15:01 | 38.33737 | -5.28673 | 22388 ft | 357 kts | 221° |
| 2026-04-26 15:02 | 38.31863 | -5.30726 | 21976 ft | 355 kts | 221° |
| 2026-04-26 15:02 | 38.30005 | -5.32759 | 21571 ft | 353 kts | 220° |
| 2026-04-26 15:02 | 38.28140 | -5.34800 | 21163 ft | 352 kts | 220° |
| 2026-04-26 15:02 | 38.26290 | -5.36823 | 20760 ft | 350 kts | 220° |
| 2026-04-26 15:03 | 38.24448 | -5.38836 | 20355 ft | 348 kts | 220° |
| 2026-04-26 15:03 | 38.22627 | -5.40825 | 19962 ft | 347 kts | 220° |
| 2026-04-26 15:03 | 38.20804 | -5.42815 | 19565 ft | 345 kts | 220° |
| 2026-04-26 15:03 | 38.18994 | -5.44789 | 19168 ft | 343 kts | 220° |
| 2026-04-26 15:04 | 38.17181 | -5.46766 | 18774 ft | 342 kts | 220° |
| 2026-04-26 15:04 | 38.15396 | -5.48711 | 18387 ft | 340 kts | 220° |
| 2026-04-26 15:04 | 38.13600 | -5.50667 | 17993 ft | 339 kts | 220° |
| 2026-04-26 15:04 | 38.11813 | -5.52611 | 17603 ft | 338 kts | 220° |
| 2026-04-26 15:05 | 38.10046 | -5.54534 | 17217 ft | 337 kts | 220° |
| 2026-04-26 15:05 | 38.09444 | -5.55188 | 17085 ft | 336 kts | 220° |
| 2026-04-26 15:05 | 38.06509 | -5.58377 | 16443 ft | 333 kts | 220° |
| 2026-04-26 15:05 | 38.04763 | -5.60273 | 16065 ft | 331 kts | 219° |
| 2026-04-26 15:06 | 38.02998 | -5.62188 | 15681 ft | 330 kts | 219° |
| 2026-04-26 15:06 | 38.01274 | -5.64057 | 15308 ft | 329 kts | 219° |
| 2026-04-26 15:06 | 37.99557 | -5.65918 | 14928 ft | 327 kts | 218° |
| 2026-04-26 15:06 | 37.97797 | -5.67823 | 14543 ft | 326 kts | 219° |
| 2026-04-26 15:07 | 37.94378 | -5.71523 | 13800 ft | 323 kts | 218° |
| 2026-04-26 15:07 | 37.92672 | -5.73367 | 13420 ft | 322 kts | 218° |
| 2026-04-26 15:07 | 37.90992 | -5.75182 | 13051 ft | 320 kts | 218° |
| 2026-04-26 15:08 | 37.89295 | -5.77016 | 12677 ft | 317 kts | 218° |
| 2026-04-26 15:08 | 37.87614 | -5.78830 | 12330 ft | 316 kts | 218° |
| 2026-04-26 15:08 | 37.85960 | -5.80615 | 11957 ft | 315 kts | 218° |
| 2026-04-26 15:08 | 37.84307 | -5.82397 | 11591 ft | 313 kts | 218° |
| 2026-04-26 15:09 | 37.82637 | -5.84196 | 11226 ft | 310 kts | 218° |
| 2026-04-26 15:09 | 37.81020 | -5.85938 | 10889 ft | 308 kts | 217° |
| 2026-04-26 15:09 | 37.79390 | -5.87692 | 10527 ft | 307 kts | 217° |
| 2026-04-26 15:09 | 37.77750 | -5.89456 | 10162 ft | 305 kts | 217° |
| 2026-04-26 15:10 | 37.76150 | -5.91175 | 9772 ft | 305 kts | 217° |
| 2026-04-26 15:10 | 37.75602 | -5.91757 | 9595 ft | 306 kts | 217° |
| 2026-04-26 15:10 | 37.72854 | -5.94678 | 8670 ft | 311 kts | 218° |
| 2026-04-26 15:10 | 37.71207 | -5.96450 | 8134 ft | 310 kts | 218° |
| 2026-04-26 15:11 | 37.69580 | -5.98200 | 7614 ft | 308 kts | 218° |
| 2026-04-26 15:11 | 37.67948 | -5.99953 | 7210 ft | 302 kts | 218° |
| 2026-04-26 15:11 | 37.66391 | -6.01627 | 6883 ft | 293 kts | 218° |
| 2026-04-26 15:11 | 37.64933 | -6.03413 | 6569 ft | 286 kts | 224° |
| 2026-04-26 15:12 | 37.63560 | -6.05141 | 6292 ft | 277 kts | 222° |
| 2026-04-26 15:12 | 37.62192 | -6.06803 | 6021 ft | 269 kts | 220° |
| 2026-04-26 15:12 | 37.60764 | -6.08251 | 5761 ft | 259 kts | 212° |
| 2026-04-26 15:12 | 37.59283 | -6.09456 | 5590 ft | 248 kts | 208° |
| 2026-04-26 15:13 | 37.57789 | -6.10527 | 5426 ft | 243 kts | 205° |
| 2026-04-26 15:13 | 37.56271 | -6.11481 | 5255 ft | 243 kts | 202° |
| 2026-04-26 15:13 | 37.54728 | -6.12334 | 5077 ft | 243 kts | 199° |
| 2026-04-26 15:13 | 37.53144 | -6.13084 | 4851 ft | 241 kts | 196° |
| 2026-04-26 15:14 | 37.51578 | -6.13708 | 4664 ft | 229 kts | 193° |
| 2026-04-26 15:14 | 37.50035 | -6.14214 | 4436 ft | 228 kts | 190° |
| 2026-04-26 15:14 | 37.48462 | -6.14613 | 4045 ft | 241 kts | 186° |
| 2026-04-26 15:14 | 37.46874 | -6.14833 | 3957 ft | 218 kts | 180° |
| 2026-04-26 15:15 | 37.45403 | -6.14960 | 3905 ft | 201 kts | 182° |
| 2026-04-26 15:15 | 37.44041 | -6.15101 | 3790 ft | 197 kts | 179° |
| 2026-04-26 15:15 | 37.42797 | -6.14738 | 3618 ft | 174 kts | 145° |
| 2026-04-26 15:15 | 37.42028 | -6.13707 | 3518 ft | 153 kts | 116° |
| 2026-04-26 15:16 | 37.41736 | -6.12499 | 3283 ft | 135 kts | 96° |
| 2026-04-26 15:16 | 37.41685 | -6.11394 | 3138 ft | 126 kts | 90° |
| 2026-04-26 15:16 | 37.41685 | -6.10294 | 2937 ft | 125 kts | 89° |
| 2026-04-26 15:16 | 37.41694 | -6.09200 | 2791 ft | 123 kts | 89° |
| 2026-04-26 15:17 | 37.41701 | -6.08138 | 2613 ft | 126 kts | 89° |
| 2026-04-26 15:17 | 37.41700 | -6.07762 | 2564 ft | 131 kts | 89° |
| 2026-04-26 15:17 | 37.41717 | -6.05929 | 2352 ft | 120 kts | 87° |
| 2026-04-26 15:17 | 37.41750 | -6.04839 | 2095 ft | 127 kts | 88° |
| 2026-04-26 15:18 | 37.41768 | -6.03760 | 1921 ft | 123 kts | 88° |
| 2026-04-26 15:18 | 37.41776 | -6.02689 | 1717 ft | 122 kts | 89° |
| 2026-04-26 15:18 | 37.41772 | -6.01631 | 1542 ft | 124 kts | 89° |
| 2026-04-26 15:18 | 37.41765 | -6.00521 | 1460 ft | 121 kts | 89° |
| 2026-04-26 15:19 | 37.41759 | -5.99425 | 1322 ft | 125 kts | 90° |
| 2026-04-26 15:19 | 37.41756 | -5.98340 | 1192 ft | 126 kts | 89° |
| 2026-04-26 15:19 | 37.41754 | -5.97238 | 1040 ft | 126 kts | 88° |
| 2026-04-26 15:19 | 37.41766 | -5.96142 | 864 ft | 125 kts | 86° |
| 2026-04-26 15:20 | 37.41775 | -5.95051 | 685 ft | 124 kts | 90° |
| 2026-04-26 15:20 | 37.41771 | -5.93966 | 544 ft | 125 kts | 90° |
| 2026-04-26 15:20 | 37.41777 | -5.92892 | 373 ft | 123 kts | 89° |
| 2026-04-26 15:20 | 37.41781 | -5.91809 | 211 ft | 122 kts | 89° |
| 2026-04-26 15:21 | 37.41787 | -5.90764 | 88 ft | 115 kts | 88° |
| 2026-04-26 15:21 | 37.41790 | -5.89874 | 87 ft | 89 kts | 90° |
| 2026-04-26 15:21 | 37.41792 | -5.89407 | 90 ft | 32 kts | 88° |
| 2026-04-26 15:21 | 37.41804 | -5.89269 | 93 ft | 12 kts | 48° |
| 2026-04-26 15:22 | 37.41892 | -5.89291 | 93 ft | 14 kts | 330° |
| 2026-04-26 15:22 | 37.41970 | -5.89350 | 90 ft | 12 kts | 315° |
| 2026-04-26 15:22 | 37.41981 | -5.89474 | 89 ft | 17 kts | 269° |
| 2026-04-26 15:22 | 37.41980 | -5.89638 | 91 ft | 20 kts | 271° |
| 2026-04-26 15:23 | 37.41980 | -5.89820 | 90 ft | 18 kts | 269° |
| 2026-04-26 15:23 | 37.41980 | -5.89962 | 90 ft | 17 kts | 270° |
| 2026-04-26 15:23 | 37.41979 | -5.90122 | 88 ft | 15 kts | 270° |
| 2026-04-26 15:23 | 37.41978 | -5.90258 | 86 ft | 14 kts | 270° |
| 2026-04-26 15:24 | 37.41978 | -5.90389 | 86 ft | 14 kts | 269° |
| 2026-04-26 15:24 | 37.41978 | -5.90491 | 85 ft | 5 kts | 270° |
| 2026-04-26 15:24 | 37.42012 | -5.90529 | 85 ft | 9 kts | 360° |
| 2026-04-26 15:24 | 37.42081 | -5.90529 | 87 ft | 8 kts | 360° |
| 2026-04-26 15:25 | 37.42110 | -5.90534 | 89 ft | 2 kts | 306° |
| 2026-04-26 15:25 | 37.42108 | -5.90558 | 88 ft | 4 kts | 266° |
| 2026-04-26 15:25 | 37.42108 | -5.90569 | 88 ft | 0 kts | 270° |